Terminal Aerodrome Forecast
Issued by NWS Charleston, WV

Home | Current Version | Previous Version | Text Only | Print | Product List | Glossary On
Versions: 1 2 3 4 5 6 7 8 9 10 11 12 13 14 15 16 17 18 19 20 21 22 23 24
000
FTUS41 KRLX 100500
TAFCRW
TAF
KCRW 100529Z 1006/1106 00000KT 6SM BR SCT050
     FM101000 00000KT 1/2SM FG BKN001
     FM101200 00000KT 2SM BR SCT002
     FM101300 00000KT P6SM SCT020
     FM101500 31004KT P6SM SCT050=

USA.gov is the U.S. government's official web portal to all federal, state and local government web resources and services.